Weather at Gressholmen Seaplane Base [CLOSED]

Public forecast

Using degrees Celsius for public forecast. Weather courtesy of forecast.io.

Closest aviation weather report (METAR) to Gressholmen Seaplane Base

Closest report is Oslo Airport, Gardermoen, 21.9 nm (40.5 km) NNE.

2024/05/28 15:50 (retrieved 39 minutes ago)

ENGM 281550Z 09007KT 060V130 9999 VCSH NSCSCT048 BKN052 21/10 Q1011 TEMPO SHRA SCT030CB BKN040

Closest aviation forecast (TAF) to Gressholmen Seaplane Base

Closest forecast is Oslo Airport, Gardermoen, 21.9 nm (40.5 km) NNE.

2024/05/28 12:36 (retrieved 4 hours ago)

TAF ENGM 281100Z 2812/2912 12004KT 9999 SCT040TCU BECMG 2816/2818 SHRA SCT030CB BKN040 TEMPO 2817/2822 19015G28KT 3000 TSRA BKN012 BKN030CB BECMG 2820/2822 19010KT -SHRA SCT012 BKN040 TEMPO 2822/2906 BKN012